首页
METAR-TAF:

METAR-TAF

机场 :

乌斯怀亚国际机场

乌斯怀亚, 阿根廷

纬度: 54-48S, 经度: 068-19W, 海拔: 16米

当前天气观测

该预报发布于15分钟前的19:00 UTC
风速4节,风向西转西南
温度 -1°C
湿度 93%
气压 993 hPa
能見度: 4000
多云层高于1000英尺
多云层高于3000英尺

METAR: SAWH 101900Z 25004KT 4000 SN BKN010 BKN030 M01/M02 Q0993

时间: 16:15 (19:15 UTC)

预报

该预报发布于2小时和15分钟前的17:00 UTC
预报有效从10日的 18点(UTC)到 11日的 18点(UTC)
风速5节,风向
能見度: 4000
散云层高于1000英尺
阴天层高于3000英尺
短暂存在
从 10日的 23点(UTC)到 11日的 01点(UTC)
风速5节,风向西北
能見度: 9000
多云层高于2000英尺
阴天层高于4000英尺
雪, 毛毛雨
成为
从 11日的 06点(UTC)到 11日的 08点(UTC)
风速5节,风向北转西北
能见度10公里或以上
散云层高于3000英尺
多云层高于6000英尺
成为
从 11日的 13点(UTC)到 11日的 15点(UTC)
多云层高于2000英尺
阴天层高于4000英尺

TAF: SAWH 101700Z 1018/1118 18005KT 4000 SN SCT010 OVC030 TX02/1018Z TNM03/1111Z TEMPO 1023/1101 32005KT 9000 SNDZ BKN020 OVC040 BECMG 1106/1108 34005KT 9999 NSW SCT030 BKN060 BECMG 1113/1115 SN BKN020 OVC040

超过4000个机场的气象观测和天气预报(METAR&TAF报告)。

可查询的气象台以黄色和红色小点在地图上表示。

将鼠标移到小点上方,可查看气象台名称。

然后点击查看天气观测和预报。

如需切换地图:点击带黑十字的绿色按钮放大地图;点击带横线的绿色按钮缩小地图;或者点击绿色箭头查看邻近地区的地图。


METAR-TAF: